createdAt,value
2022-10-15T00:02:23.267Z,9.15
2022-10-15T00:07:26.396Z,9.19
2022-10-15T00:12:29.567Z,9.23
2022-10-15T00:17:34.008Z,9.24
2022-10-15T00:22:37.304Z,9.21
2022-10-15T00:27:40.176Z,9.12
2022-10-15T00:32:42.954Z,9.03
2022-10-15T00:37:46.266Z,9.03
2022-10-15T00:42:48.966Z,9.02
2022-10-15T00:47:53.230Z,9.00
2022-10-15T00:53:04.875Z,9.00
2022-10-15T00:58:14.196Z,8.97
2022-10-15T01:03:16.969Z,8.90
2022-10-15T01:08:19.830Z,8.82
2022-10-15T01:13:46.206Z,8.78
2022-10-15T01:19:04.213Z,8.77
2022-10-15T01:24:13.095Z,8.73
2022-10-15T01:29:18.877Z,8.71
2022-10-15T01:34:26.528Z,8.70
2022-10-15T01:39:41.339Z,8.68
2022-10-15T01:44:53.996Z,8.67
2022-10-15T01:49:58.293Z,8.70
2022-10-15T01:55:02.501Z,8.70
2022-10-15T02:00:06.022Z,8.67
2022-10-15T02:05:23.213Z,8.66
2022-10-15T02:10:38.224Z,8.64
2022-10-15T02:15:43.755Z,8.64
2022-10-15T02:21:06.940Z,8.63
2022-10-15T02:26:12.368Z,8.65
2022-10-15T02:31:16.731Z,8.58
2022-10-15T02:36:20.053Z,8.54
2022-10-15T02:41:23.338Z,8.48
2022-10-15T02:46:26.184Z,8.46
2022-10-15T02:51:33.055Z,8.39
2022-10-15T02:56:36.025Z,8.37
2022-10-15T03:01:38.846Z,8.31
2022-10-15T03:06:41.672Z,8.25
2022-10-15T03:11:44.448Z,8.17
2022-10-15T03:16:47.822Z,8.17
2022-10-15T03:21:50.868Z,8.13
2022-10-15T03:26:53.754Z,8.11
2022-10-15T03:31:56.553Z,8.03
2022-10-15T03:36:59.221Z,7.99
2022-10-15T03:42:02.066Z,7.96
2022-10-15T03:47:04.965Z,7.96
2022-10-15T03:52:07.773Z,7.94
2022-10-15T03:57:10.619Z,7.88
2022-10-15T04:02:13.492Z,7.84
2022-10-15T04:07:16.096Z,7.82
2022-10-15T04:12:19.090Z,7.78
2022-10-15T04:17:21.993Z,7.73
2022-10-15T04:22:25.245Z,7.75
2022-10-15T04:27:28.643Z,7.73
2022-10-15T04:32:31.645Z,7.74
2022-10-15T04:37:35.145Z,7.70
2022-10-15T04:42:38.185Z,7.69
2022-10-15T04:47:41.296Z,7.65
2022-10-15T04:52:44.189Z,7.62
2022-10-15T04:57:47.470Z,7.62
2022-10-15T05:02:50.476Z,7.68
2022-10-15T05:07:53.482Z,7.73
2022-10-15T05:12:57.031Z,7.76
2022-10-15T05:18:00.643Z,7.78
2022-10-15T05:23:04.495Z,7.78
2022-10-15T05:28:07.273Z,7.78
2022-10-15T05:33:10.241Z,7.87
2022-10-15T05:38:13.030Z,7.95
2022-10-15T05:43:16.094Z,8.02
2022-10-15T05:48:18.806Z,8.10
2022-10-15T05:53:21.586Z,8.20
2022-10-15T05:58:26.061Z,8.24
2022-10-15T06:03:29.323Z,8.26
2022-10-15T06:08:32.290Z,8.32
2022-10-15T06:13:35.095Z,8.43
2022-10-15T06:18:41.070Z,8.58
2022-10-15T06:23:44.061Z,8.74
2022-10-15T06:28:51.383Z,8.95
2022-10-15T06:33:54.320Z,9.13
2022-10-15T06:38:57.126Z,9.31
2022-10-15T06:43:59.838Z,9.55
2022-10-15T06:49:02.795Z,9.77
2022-10-15T06:54:05.659Z,9.97
2022-10-15T06:59:08.495Z,10.19
2022-10-15T07:04:11.687Z,10.38
2022-10-15T07:09:14.586Z,10.59
2022-10-15T07:14:17.725Z,10.80
2022-10-15T07:19:21.042Z,11.06
2022-10-15T07:24:23.876Z,11.75
2022-10-15T07:29:26.478Z,12.10
2022-10-15T07:34:29.260Z,12.07
2022-10-15T07:39:31.978Z,12.13
2022-10-15T07:44:34.632Z,12.20
2022-10-15T07:49:37.540Z,12.24
2022-10-15T07:54:40.393Z,12.37
2022-10-15T07:59:43.450Z,12.51
2022-10-15T08:04:46.226Z,12.67
2022-10-15T08:09:48.956Z,12.79
2022-10-15T08:14:51.793Z,12.91
2022-10-15T08:19:55.703Z,13.06
2022-10-15T08:24:58.487Z,13.36
2022-10-15T08:30:02.358Z,13.64
2022-10-15T08:35:06.823Z,13.91
2022-10-15T08:40:10.460Z,14.18
2022-10-15T08:45:19.938Z,14.52
2022-10-15T08:50:34.900Z,14.85
2022-10-15T08:55:40.640Z,15.07
2022-10-15T09:00:54.610Z,15.34
2022-10-15T09:05:59.643Z,15.61
2022-10-15T09:11:47.564Z,15.80
2022-10-15T09:16:53.877Z,15.95
2022-10-15T09:21:57.770Z,16.17
2022-10-15T09:27:07.400Z,16.39
2022-10-15T09:32:42.981Z,16.69
2022-10-15T09:38:24.508Z,16.89
2022-10-15T09:43:35.475Z,17.05
2022-10-15T09:48:52.844Z,17.11
2022-10-15T09:54:01.625Z,17.27
2022-10-15T09:59:07.352Z,17.38
2022-10-15T10:04:13.858Z,17.66
2022-10-15T10:09:22.885Z,18.04
2022-10-15T10:14:29.545Z,18.33
2022-10-15T10:19:32.462Z,18.51
2022-10-15T10:24:35.099Z,18.75
2022-10-15T10:29:43.065Z,18.91
2022-10-15T10:34:51.514Z,19.13
2022-10-15T10:40:00.799Z,19.01
2022-10-15T10:45:23.695Z,19.02
2022-10-15T10:50:33.588Z,18.87
2022-10-15T10:55:39.263Z,18.69
2022-10-15T11:00:44.293Z,18.57
2022-10-15T11:05:48.566Z,18.43
2022-10-15T11:11:03.817Z,18.34
2022-10-15T11:16:38.230Z,18.26
2022-10-15T11:21:59.411Z,18.18
2022-10-15T11:27:36.449Z,18.13
2022-10-15T11:33:06.112Z,18.02
2022-10-15T11:38:25.831Z,17.96
2022-10-15T11:43:39.620Z,17.99
2022-10-15T11:49:01.547Z,18.05
2022-10-15T11:54:05.072Z,18.10
2022-10-15T11:59:23.837Z,18.14
2022-10-15T12:04:43.601Z,18.15
2022-10-15T12:09:50.198Z,18.19
2022-10-15T12:14:57.636Z,18.29
2022-10-15T12:20:15.945Z,18.31
2022-10-15T12:25:34.377Z,18.33
2022-10-15T12:30:37.842Z,18.28
2022-10-15T12:35:40.759Z,18.22
2022-10-15T12:40:43.736Z,18.12
2022-10-15T12:45:58.016Z,18.06
2022-10-15T12:51:22.532Z,18.01
2022-10-15T12:56:35.747Z,17.98
2022-10-15T13:01:44.848Z,18.07
2022-10-15T13:06:47.796Z,18.13
2022-10-15T13:11:54.862Z,18.15
2022-10-15T13:16:58.607Z,18.22
2022-10-15T13:22:03.511Z,18.23
2022-10-15T13:27:22.106Z,18.15
2022-10-15T13:32:26.825Z,18.12
2022-10-15T13:37:32.784Z,18.10
2022-10-15T13:42:36.009Z,18.02
2022-10-15T13:47:42.694Z,17.95
2022-10-15T13:52:52.473Z,17.87
2022-10-15T13:58:05.613Z,17.79
2022-10-15T14:03:19.403Z,17.81
2022-10-15T14:08:28.333Z,17.79
2022-10-15T14:13:31.155Z,17.75
2022-10-15T14:18:37.732Z,17.70
2022-10-15T14:23:41.399Z,17.64
2022-10-15T14:28:51.668Z,17.58
2022-10-15T14:33:54.520Z,17.55
2022-10-15T14:39:25.362Z,17.49
2022-10-15T14:44:48.161Z,17.39
2022-10-15T14:49:54.434Z,17.30
2022-10-15T14:55:10.534Z,17.26
2022-10-15T15:00:33.498Z,17.18
2022-10-15T15:05:46.906Z,17.10
2022-10-15T15:10:51.004Z,16.96
2022-10-15T15:15:54.389Z,16.83
2022-10-15T15:21:01.788Z,16.73
2022-10-15T15:26:04.727Z,16.66
2022-10-15T15:31:13.944Z,16.57
2022-10-15T15:36:20.792Z,16.49
2022-10-15T15:41:26.476Z,16.43
2022-10-15T15:46:29.244Z,16.37
2022-10-15T15:51:32.719Z,16.27
2022-10-15T15:56:35.598Z,16.15
2022-10-15T16:01:38.447Z,15.98
2022-10-15T16:06:42.478Z,15.84
2022-10-15T16:11:45.418Z,15.76
2022-10-15T16:16:48.411Z,15.66
2022-10-15T16:21:51.283Z,15.58
2022-10-15T16:26:54.060Z,15.49
2022-10-15T16:31:56.690Z,15.41
2022-10-15T16:36:59.576Z,15.32
2022-10-15T16:42:02.620Z,15.24
2022-10-15T16:47:05.531Z,15.17
2022-10-15T16:52:08.946Z,15.10
2022-10-15T16:57:11.678Z,15.04
2022-10-15T17:02:14.710Z,14.98
2022-10-15T17:07:17.434Z,14.95
2022-10-15T17:12:20.375Z,14.88
2022-10-15T17:17:23.245Z,14.80
2022-10-15T17:22:26.493Z,14.74
2022-10-15T17:27:29.524Z,14.67
2022-10-15T17:32:33.657Z,14.63
2022-10-15T17:37:36.466Z,14.60
2022-10-15T17:42:42.936Z,14.55
2022-10-15T17:47:45.841Z,14.51
2022-10-15T17:52:48.665Z,14.49
2022-10-15T17:57:51.432Z,14.50
2022-10-15T18:02:54.456Z,14.48
2022-10-15T18:07:57.300Z,14.47
2022-10-15T18:13:00.247Z,14.43
2022-10-15T18:18:03.180Z,14.39
2022-10-15T18:23:06.102Z,14.32
2022-10-15T18:28:09.167Z,14.30
2022-10-15T18:33:12.219Z,14.27
2022-10-15T18:38:16.362Z,14.27
2022-10-15T18:43:19.657Z,14.25
2022-10-15T18:48:22.552Z,14.22
2022-10-15T18:53:26.171Z,14.18
2022-10-15T18:58:28.979Z,14.13
2022-10-15T19:03:32.043Z,14.09
2022-10-15T19:08:34.862Z,14.10
2022-10-15T19:13:37.700Z,14.06
2022-10-15T19:18:40.846Z,14.06
2022-10-15T19:23:43.802Z,14.07
2022-10-15T19:28:47.207Z,14.06
2022-10-15T19:33:54.785Z,14.04
2022-10-15T19:39:01.391Z,14.03
2022-10-15T19:44:05.102Z,14.03
2022-10-15T19:49:10.391Z,14.02
2022-10-15T19:54:13.035Z,14.00
2022-10-15T19:59:17.116Z,14.00
2022-10-15T20:04:19.949Z,13.97
2022-10-15T20:09:22.795Z,13.95
2022-10-15T20:14:27.138Z,13.93
2022-10-15T20:19:29.924Z,13.90
2022-10-15T20:24:32.788Z,13.89
2022-10-15T20:29:35.645Z,13.83
2022-10-15T20:34:38.495Z,13.84
2022-10-15T20:39:41.353Z,13.83
2022-10-15T20:44:44.237Z,13.83
2022-10-15T20:49:50.643Z,13.83
2022-10-15T20:54:54.768Z,13.81
2022-10-15T20:59:57.575Z,13.80
2022-10-15T21:05:00.435Z,13.77
2022-10-15T21:10:04.707Z,13.78
2022-10-15T21:15:07.911Z,13.75
2022-10-15T21:20:10.871Z,13.76
2022-10-15T21:25:13.832Z,13.73
2022-10-15T21:30:16.762Z,13.72
2022-10-15T21:35:20.128Z,13.71
2022-10-15T21:40:23.025Z,13.69
2022-10-15T21:45:25.919Z,13.67
2022-10-15T21:50:30.813Z,13.62
2022-10-15T21:55:34.072Z,13.58
2022-10-15T22:00:36.857Z,13.59
2022-10-15T22:05:39.906Z,13.59
2022-10-15T22:10:42.751Z,13.57
2022-10-15T22:15:45.554Z,13.55
2022-10-15T22:20:48.402Z,13.54
2022-10-15T22:25:58.980Z,13.51
2022-10-15T22:31:04.082Z,13.51
2022-10-15T22:36:13.436Z,13.49
2022-10-15T22:41:16.509Z,13.44
2022-10-15T22:46:19.545Z,13.46
2022-10-15T22:51:22.471Z,13.46
2022-10-15T22:56:26.311Z,13.48
2022-10-15T23:01:31.355Z,13.49
2022-10-15T23:06:36.499Z,13.49
2022-10-15T23:11:40.398Z,13.49
2022-10-15T23:16:45.380Z,13.50
2022-10-15T23:21:52.801Z,13.48
2022-10-15T23:26:55.456Z,13.45
2022-10-15T23:31:58.297Z,13.44
2022-10-15T23:37:01.625Z,13.43
2022-10-15T23:42:04.757Z,13.39
2022-10-15T23:47:07.615Z,13.41
2022-10-15T23:52:10.648Z,13.37
2022-10-15T23:57:13.486Z,13.34
